Burbank, Illinois
Current Conditions -  °F | °C
As of 3:53 PM on Saturday 20 Dec 2014 (Local Time) from KMDW Reporting Station
Overcast Overcast  
Wind Chill: 30°   Ceiling: 5000
Heat Index: 34°   Visibility: 10mi
Dew Point: 25°   Wind: 5mph
Humidity: 70%   Direction: 200°SSW
Pressure: 30.25"   Gusts: NA
Location:  41.75°N, 87.78°W
Report Text: KMDW 202153Z 20004KT 10SM FEW020 BKN050 OVC070 01/M04 A3025 RMK AO2 SNE13 SLP255 P0000 T00111039
Loading
Personal Weather Stations






























Interactive Weather Map New forecast layout! Learn more

10-Day Weather Forecast

Advertisements
Track Severe Weather on mobile